sensor_id;sensor_type;location;lat;lon;timestamp;P1;durP1;ratioP1;P2;durP2;ratioP2
3943;SDS011;1986;52.546;13.428;2023-05-29T00:01:33;21.30;;;20.10;;
3943;SDS011;1986;52.546;13.428;2023-05-29T00:04:01;21.00;;;19.80;;
3943;SDS011;1986;52.546;13.428;2023-05-29T00:06:32;21.53;;;20.33;;
3943;SDS011;1986;52.546;13.428;2023-05-29T00:09:00;23.73;;;22.33;;
3943;SDS011;1986;52.546;13.428;2023-05-29T00:11:27;21.60;;;20.40;;
3943;SDS011;1986;52.546;13.428;2023-05-29T00:13:55;21.80;;;20.60;;
3943;SDS011;1986;52.546;13.428;2023-05-29T00:16:23;21.80;;;20.50;;
3943;SDS011;1986;52.546;13.428;2023-05-29T00:18:54;21.00;;;19.80;;
3943;SDS011;1986;52.546;13.428;2023-05-29T00:21:24;20.90;;;19.70;;
3943;SDS011;1986;52.546;13.428;2023-05-29T00:23:54;21.00;;;19.80;;
3943;SDS011;1986;52.546;13.428;2023-05-29T00:26:21;22.80;;;20.50;;
3943;SDS011;1986;52.546;13.428;2023-05-29T00:28:50;22.20;;;20.80;;
3943;SDS011;1986;52.546;13.428;2023-05-29T00:31:20;21.53;;;20.33;;
3943;SDS011;1986;52.546;13.428;2023-05-29T00:33:50;21.10;;;19.90;;
3943;SDS011;1986;52.546;13.428;2023-05-29T00:36:19;20.80;;;19.60;;
3943;SDS011;1986;52.546;13.428;2023-05-29T00:38:46;21.50;;;20.20;;
3943;SDS011;1986;52.546;13.428;2023-05-29T00:41:17;21.37;;;20.17;;
3943;SDS011;1986;52.546;13.428;2023-05-29T00:43:44;20.90;;;19.70;;
3943;SDS011;1986;52.546;13.428;2023-05-29T00:46:12;20.40;;;19.30;;
3943;SDS011;1986;52.546;13.428;2023-05-29T00:48:41;20.80;;;19.60;;
3943;SDS011;1986;52.546;13.428;2023-05-29T00:51:09;20.70;;;19.60;;
3943;SDS011;1986;52.546;13.428;2023-05-29T00:53:37;20.40;;;19.30;;
3943;SDS011;1986;52.546;13.428;2023-05-29T00:56:07;20.53;;;19.43;;
3943;SDS011;1986;52.546;13.428;2023-05-29T00:58:38;20.77;;;19.57;;
3943;SDS011;1986;52.546;13.428;2023-05-29T01:01:07;19.83;;;18.70;;
3943;SDS011;1986;52.546;13.428;2023-05-29T01:03:36;19.93;;;18.83;;
3943;SDS011;1986;52.546;13.428;2023-05-29T01:06:04;19.27;;;18.27;;
3943;SDS011;1986;52.546;13.428;2023-05-29T01:08:32;20.20;;;19.10;;
3943;SDS011;1986;52.546;13.428;2023-05-29T01:11:00;20.20;;;19.20;;
3943;SDS011;1986;52.546;13.428;2023-05-29T01:13:34;18.90;;;17.93;;
3943;SDS011;1986;52.546;13.428;2023-05-29T01:16:07;18.77;;;17.77;;
3943;SDS011;1986;52.546;13.428;2023-05-29T01:18:39;18.33;;;17.43;;
3943;SDS011;1986;52.546;13.428;2023-05-29T01:21:14;18.90;;;17.90;;
3943;SDS011;1986;52.546;13.428;2023-05-29T01:23:53;17.90;;;17.00;;
3943;SDS011;1986;52.546;13.428;2023-05-29T01:26:50;19.50;;;18.00;;
3943;SDS011;1986;52.546;13.428;2023-05-29T01:29:25;16.97;;;16.17;;
3943;SDS011;1986;52.546;13.428;2023-05-29T01:31:56;17.30;;;16.50;;
3943;SDS011;1986;52.546;13.428;2023-05-29T01:34:24;17.10;;;16.30;;
3943;SDS011;1986;52.546;13.428;2023-05-29T01:36:52;17.50;;;16.70;;
3943;SDS011;1986;52.546;13.428;2023-05-29T01:39:18;17.13;;;16.33;;
3943;SDS011;1986;52.546;13.428;2023-05-29T01:41:46;16.77;;;16.00;;
3943;SDS011;1986;52.546;13.428;2023-05-29T01:44:15;16.60;;;15.90;;
3943;SDS011;1986;52.546;13.428;2023-05-29T01:46:46;16.57;;;15.80;;
3943;SDS011;1986;52.546;13.428;2023-05-29T01:49:13;17.43;;;16.63;;
3943;SDS011;1986;52.546;13.428;2023-05-29T01:51:41;16.23;;;15.53;;
3943;SDS011;1986;52.546;13.428;2023-05-29T01:54:09;16.20;;;15.50;;
3943;SDS011;1986;52.546;13.428;2023-05-29T01:56:36;15.37;;;14.77;;
3943;SDS011;1986;52.546;13.428;2023-05-29T01:59:04;15.80;;;15.10;;
3943;SDS011;1986;52.546;13.428;2023-05-29T02:01:33;15.70;;;15.07;;
3943;SDS011;1986;52.546;13.428;2023-05-29T02:04:00;18.13;;;16.93;;
3943;SDS011;1986;52.546;13.428;2023-05-29T02:06:29;15.40;;;14.80;;
3943;SDS011;1986;52.546;13.428;2023-05-29T02:08:59;15.57;;;14.97;;
3943;SDS011;1986;52.546;13.428;2023-05-29T02:11:26;15.00;;;14.40;;
3943;SDS011;1986;52.546;13.428;2023-05-29T02:13:52;15.40;;;14.80;;
3943;SDS011;1986;52.546;13.428;2023-05-29T02:16:19;15.77;;;15.13;;
3943;SDS011;1986;52.546;13.428;2023-05-29T02:18:48;14.93;;;14.33;;
3943;SDS011;1986;52.546;13.428;2023-05-29T02:21:17;14.60;;;14.10;;
3943;SDS011;1986;52.546;13.428;2023-05-29T02:23:44;14.57;;;14.07;;
3943;SDS011;1986;52.546;13.428;2023-05-29T02:26:13;16.33;;;15.70;;
3943;SDS011;1986;52.546;13.428;2023-05-29T02:28:40;15.03;;;14.43;;
3943;SDS011;1986;52.546;13.428;2023-05-29T02:31:07;15.50;;;14.90;;
3943;SDS011;1986;52.546;13.428;2023-05-29T02:33:34;14.80;;;14.30;;
3943;SDS011;1986;52.546;13.428;2023-05-29T02:36:02;14.03;;;13.53;;
3943;SDS011;1986;52.546;13.428;2023-05-29T02:38:36;14.87;;;14.27;;
3943;SDS011;1986;52.546;13.428;2023-05-29T02:41:03;14.30;;;13.80;;
3943;SDS011;1986;52.546;13.428;2023-05-29T02:43:31;14.03;;;13.53;;
3943;SDS011;1986;52.546;13.428;2023-05-29T02:45:59;13.40;;;12.93;;
3943;SDS011;1986;52.546;13.428;2023-05-29T02:48:26;13.23;;;12.80;;
3943;SDS011;1986;52.546;13.428;2023-05-29T02:50:56;13.27;;;12.87;;
3943;SDS011;1986;52.546;13.428;2023-05-29T02:53:25;12.80;;;12.40;;
3943;SDS011;1986;52.546;13.428;2023-05-29T02:55:54;13.00;;;12.60;;
3943;SDS011;1986;52.546;13.428;2023-05-29T02:58:22;12.80;;;12.40;;
3943;SDS011;1986;52.546;13.428;2023-05-29T03:00:50;12.77;;;12.37;;
3943;SDS011;1986;52.546;13.428;2023-05-29T03:03:17;13.47;;;12.97;;
3943;SDS011;1986;52.546;13.428;2023-05-29T03:05:44;13.07;;;12.67;;
3943;SDS011;1986;52.546;13.428;2023-05-29T03:08:11;13.00;;;12.60;;
3943;SDS011;1986;52.546;13.428;2023-05-29T03:10:40;13.17;;;12.70;;
3943;SDS011;1986;52.546;13.428;2023-05-29T03:13:08;12.77;;;12.37;;
3943;SDS011;1986;52.546;13.428;2023-05-29T03:15:35;13.00;;;12.60;;
3943;SDS011;1986;52.546;13.428;2023-05-29T03:18:02;12.50;;;12.10;;
3943;SDS011;1986;52.546;13.428;2023-05-29T03:20:29;13.00;;;12.60;;
3943;SDS011;1986;52.546;13.428;2023-05-29T03:22:56;14.97;;;13.80;;
3943;SDS011;1986;52.546;13.428;2023-05-29T03:25:23;13.03;;;12.63;;
3943;SDS011;1986;52.546;13.428;2023-05-29T03:27:51;13.30;;;12.83;;
3943;SDS011;1986;52.546;13.428;2023-05-29T03:30:18;13.00;;;12.60;;
3943;SDS011;1986;52.546;13.428;2023-05-29T03:32:45;13.10;;;12.70;;
3943;SDS011;1986;52.546;13.428;2023-05-29T03:35:12;13.00;;;12.60;;
3943;SDS011;1986;52.546;13.428;2023-05-29T03:37:39;12.90;;;12.50;;
3943;SDS011;1986;52.546;13.428;2023-05-29T03:40:07;12.80;;;12.40;;
3943;SDS011;1986;52.546;13.428;2023-05-29T03:42:34;12.80;;;12.40;;
3943;SDS011;1986;52.546;13.428;2023-05-29T03:45:03;12.70;;;12.30;;
3943;SDS011;1986;52.546;13.428;2023-05-29T03:47:30;13.00;;;12.60;;
3943;SDS011;1986;52.546;13.428;2023-05-29T03:49:57;13.43;;;12.83;;
3943;SDS011;1986;52.546;13.428;2023-05-29T03:52:24;14.57;;;13.87;;
3943;SDS011;1986;52.546;13.428;2023-05-29T03:54:52;12.50;;;12.10;;
3943;SDS011;1986;52.546;13.428;2023-05-29T03:57:19;14.20;;;13.50;;
3943;SDS011;1986;52.546;13.428;2023-05-29T03:59:46;13.53;;;13.03;;
3943;SDS011;1986;52.546;13.428;2023-05-29T04:02:17;14.17;;;13.57;;
3943;SDS011;1986;52.546;13.428;2023-05-29T04:04:44;14.60;;;14.00;;
3943;SDS011;1986;52.546;13.428;2023-05-29T04:07:11;14.20;;;13.60;;
3943;SDS011;1986;52.546;13.428;2023-05-29T04:09:38;13.80;;;13.30;;
3943;SDS011;1986;52.546;13.428;2023-05-29T04:12:05;13.10;;;12.70;;
3943;SDS011;1986;52.546;13.428;2023-05-29T04:14:32;13.03;;;12.63;;
3943;SDS011;1986;52.546;13.428;2023-05-29T04:16:59;13.00;;;12.60;;
3943;SDS011;1986;52.546;13.428;2023-05-29T04:19:27;13.77;;;13.27;;
3943;SDS011;1986;52.546;13.428;2023-05-29T04:21:55;13.00;;;12.60;;
3943;SDS011;1986;52.546;13.428;2023-05-29T04:24:24;13.30;;;12.80;;
3943;SDS011;1986;52.546;13.428;2023-05-29T04:26:51;13.80;;;13.30;;
3943;SDS011;1986;52.546;13.428;2023-05-29T04:29:18;13.60;;;13.10;;
3943;SDS011;1986;52.546;13.428;2023-05-29T04:31:46;13.87;;;13.37;;
3943;SDS011;1986;52.546;13.428;2023-05-29T04:34:13;15.40;;;14.70;;
3943;SDS011;1986;52.546;13.428;2023-05-29T04:36:44;14.00;;;13.50;;
3943;SDS011;1986;52.546;13.428;2023-05-29T04:39:11;14.73;;;14.13;;
3943;SDS011;1986;52.546;13.428;2023-05-29T04:41:38;15.50;;;14.80;;
3943;SDS011;1986;52.546;13.428;2023-05-29T04:44:06;15.67;;;15.00;;
3943;SDS011;1986;52.546;13.428;2023-05-29T04:46:36;14.40;;;13.90;;
3943;SDS011;1986;52.546;13.428;2023-05-29T04:49:03;15.70;;;15.10;;
3943;SDS011;1986;52.546;13.428;2023-05-29T04:51:30;16.20;;;15.40;;
3943;SDS011;1986;52.546;13.428;2023-05-29T04:54:01;15.50;;;14.90;;
3943;SDS011;1986;52.546;13.428;2023-05-29T04:56:28;15.87;;;15.17;;
3943;SDS011;1986;52.546;13.428;2023-05-29T04:58:56;15.83;;;15.13;;
3943;SDS011;1986;52.546;13.428;2023-05-29T05:01:23;15.33;;;14.73;;
3943;SDS011;1986;52.546;13.428;2023-05-29T05:03:50;15.97;;;15.37;;
3943;SDS011;1986;52.546;13.428;2023-05-29T05:06:20;15.80;;;15.20;;
3943;SDS011;1986;52.546;13.428;2023-05-29T05:08:47;15.70;;;15.10;;
3943;SDS011;1986;52.546;13.428;2023-05-29T05:11:16;15.60;;;15.00;;
3943;SDS011;1986;52.546;13.428;2023-05-29T05:13:44;15.80;;;15.20;;
3943;SDS011;1986;52.546;13.428;2023-05-29T05:16:11;15.77;;;15.17;;
3943;SDS011;1986;52.546;13.428;2023-05-29T05:18:39;17.20;;;16.43;;
3943;SDS011;1986;52.546;13.428;2023-05-29T05:21:06;16.43;;;15.73;;
3943;SDS011;1986;52.546;13.428;2023-05-29T05:23:33;16.90;;;16.20;;
3943;SDS011;1986;52.546;13.428;2023-05-29T05:26:08;18.27;;;17.37;;
3943;SDS011;1986;52.546;13.428;2023-05-29T05:28:36;18.43;;;17.53;;
3943;SDS011;1986;52.546;13.428;2023-05-29T05:31:03;17.50;;;16.70;;
3943;SDS011;1986;52.546;13.428;2023-05-29T05:33:30;18.57;;;17.60;;
3943;SDS011;1986;52.546;13.428;2023-05-29T05:35:56;18.03;;;17.20;;
3943;SDS011;1986;52.546;13.428;2023-05-29T05:38:23;18.77;;;17.87;;
3943;SDS011;1986;52.546;13.428;2023-05-29T05:40:50;19.23;;;18.03;;
3943;SDS011;1986;52.546;13.428;2023-05-29T05:43:17;18.60;;;17.70;;
3943;SDS011;1986;52.546;13.428;2023-05-29T05:45:46;18.80;;;17.90;;
3943;SDS011;1986;52.546;13.428;2023-05-29T05:48:12;18.80;;;17.90;;
3943;SDS011;1986;52.546;13.428;2023-05-29T05:50:42;19.40;;;18.40;;
3943;SDS011;1986;52.546;13.428;2023-05-29T05:53:09;20.03;;;19.03;;
3943;SDS011;1986;52.546;13.428;2023-05-29T05:55:36;19.90;;;18.90;;
3943;SDS011;1986;52.546;13.428;2023-05-29T05:58:03;21.03;;;19.93;;
3943;SDS011;1986;52.546;13.428;2023-05-29T06:00:30;20.33;;;19.23;;
3943;SDS011;1986;52.546;13.428;2023-05-29T06:02:58;20.03;;;18.93;;
3943;SDS011;1986;52.546;13.428;2023-05-29T06:05:27;22.70;;;21.20;;
3943;SDS011;1986;52.546;13.428;2023-05-29T06:07:54;21.83;;;20.63;;
3943;SDS011;1986;52.546;13.428;2023-05-29T06:10:22;21.50;;;20.30;;
3943;SDS011;1986;52.546;13.428;2023-05-29T06:12:52;21.00;;;19.80;;
3943;SDS011;1986;52.546;13.428;2023-05-29T06:15:19;21.87;;;20.57;;
3943;SDS011;1986;52.546;13.428;2023-05-29T06:17:46;21.97;;;20.67;;
3943;SDS011;1986;52.546;13.428;2023-05-29T06:20:15;21.80;;;20.50;;
3943;SDS011;1986;52.546;13.428;2023-05-29T06:22:43;22.03;;;20.73;;
3943;SDS011;1986;52.546;13.428;2023-05-29T06:25:15;22.10;;;20.80;;
3943;SDS011;1986;52.546;13.428;2023-05-29T06:27:43;23.40;;;22.00;;
3943;SDS011;1986;52.546;13.428;2023-05-29T06:30:11;23.27;;;21.47;;
3943;SDS011;1986;52.546;13.428;2023-05-29T06:32:42;22.00;;;20.70;;
3943;SDS011;1986;52.546;13.428;2023-05-29T06:35:10;23.13;;;21.73;;
3943;SDS011;1986;52.546;13.428;2023-05-29T06:37:41;23.43;;;21.93;;
3943;SDS011;1986;52.546;13.428;2023-05-29T06:40:08;23.70;;;22.20;;
3943;SDS011;1986;52.546;13.428;2023-05-29T06:42:37;23.20;;;21.80;;
3943;SDS011;1986;52.546;13.428;2023-05-29T06:45:05;23.63;;;22.13;;
3943;SDS011;1986;52.546;13.428;2023-05-29T06:47:33;24.13;;;22.53;;
3943;SDS011;1986;52.546;13.428;2023-05-29T06:50:01;25.63;;;23.83;;
3943;SDS011;1986;52.546;13.428;2023-05-29T06:52:28;25.73;;;24.10;;
3943;SDS011;1986;52.546;13.428;2023-05-29T06:54:57;25.60;;;23.90;;
3943;SDS011;1986;52.546;13.428;2023-05-29T06:57:24;26.17;;;24.27;;
3943;SDS011;1986;52.546;13.428;2023-05-29T06:59:51;25.60;;;23.80;;
3943;SDS011;1986;52.546;13.428;2023-05-29T07:02:18;25.50;;;23.80;;
3943;SDS011;1986;52.546;13.428;2023-05-29T07:04:45;25.60;;;23.90;;
3943;SDS011;1986;52.546;13.428;2023-05-29T07:07:14;37.63;;;34.33;;
3943;SDS011;1986;52.546;13.428;2023-05-29T07:09:41;51.20;;;46.40;;
3943;SDS011;1986;52.546;13.428;2023-05-29T07:12:12;52.77;;;48.07;;
3943;SDS011;1986;52.546;13.428;2023-05-29T07:14:39;51.53;;;46.93;;
3943;SDS011;1986;52.546;13.428;2023-05-29T07:17:06;47.80;;;43.50;;
3943;SDS011;1986;52.546;13.428;2023-05-29T07:19:33;35.30;;;32.60;;
3943;SDS011;1986;52.546;13.428;2023-05-29T07:22:00;24.43;;;22.73;;
3943;SDS011;1986;52.546;13.428;2023-05-29T07:24:27;26.40;;;24.50;;
3943;SDS011;1986;52.546;13.428;2023-05-29T07:26:54;26.53;;;24.63;;
3943;SDS011;1986;52.546;13.428;2023-05-29T07:29:22;29.30;;;26.90;;
3943;SDS011;1986;52.546;13.428;2023-05-29T07:31:51;26.83;;;24.90;;
3943;SDS011;1986;52.546;13.428;2023-05-29T07:34:26;25.90;;;24.10;;
3943;SDS011;1986;52.546;13.428;2023-05-29T07:37:00;27.53;;;25.53;;
3943;SDS011;1986;52.546;13.428;2023-05-29T07:39:32;27.80;;;25.80;;
3943;SDS011;1986;52.546;13.428;2023-05-29T07:42:00;28.60;;;26.50;;
3943;SDS011;1986;52.546;13.428;2023-05-29T07:44:29;28.93;;;26.73;;
3943;SDS011;1986;52.546;13.428;2023-05-29T07:46:56;28.17;;;26.07;;
3943;SDS011;1986;52.546;13.428;2023-05-29T07:49:23;28.00;;;26.00;;
3943;SDS011;1986;52.546;13.428;2023-05-29T07:51:50;28.13;;;26.03;;
3943;SDS011;1986;52.546;13.428;2023-05-29T07:54:17;29.47;;;27.37;;
3943;SDS011;1986;52.546;13.428;2023-05-29T07:56:45;28.27;;;26.23;;
3943;SDS011;1986;52.546;13.428;2023-05-29T07:59:12;29.07;;;26.87;;
3943;SDS011;1986;52.546;13.428;2023-05-29T08:01:41;29.17;;;27.07;;
3943;SDS011;1986;52.546;13.428;2023-05-29T08:04:08;29.60;;;27.50;;
3943;SDS011;1986;52.546;13.428;2023-05-29T08:06:36;28.40;;;26.40;;
3943;SDS011;1986;52.546;13.428;2023-05-29T08:09:03;29.77;;;26.90;;
3943;SDS011;1986;52.546;13.428;2023-05-29T08:11:30;29.00;;;27.00;;
3943;SDS011;1986;52.546;13.428;2023-05-29T08:13:57;29.80;;;27.60;;
3943;SDS011;1986;52.546;13.428;2023-05-29T08:16:24;29.47;;;27.40;;
3943;SDS011;1986;52.546;13.428;2023-05-29T08:18:53;29.70;;;27.60;;
3943;SDS011;1986;52.546;13.428;2023-05-29T08:21:21;29.70;;;27.60;;
3943;SDS011;1986;52.546;13.428;2023-05-29T08:23:48;28.90;;;26.80;;
3943;SDS011;1986;52.546;13.428;2023-05-29T08:26:15;29.13;;;27.10;;
3943;SDS011;1986;52.546;13.428;2023-05-29T08:28:42;30.37;;;28.17;;
3943;SDS011;1986;52.546;13.428;2023-05-29T08:31:08;30.00;;;27.80;;
3943;SDS011;1986;52.546;13.428;2023-05-29T08:33:35;30.70;;;28.47;;
3943;SDS011;1986;52.546;13.428;2023-05-29T08:36:06;34.73;;;31.63;;
3943;SDS011;1986;52.546;13.428;2023-05-29T08:38:33;33.07;;;30.27;;
3943;SDS011;1986;52.546;13.428;2023-05-29T08:41:00;32.07;;;29.77;;
3943;SDS011;1986;52.546;13.428;2023-05-29T08:43:29;31.30;;;29.00;;
3943;SDS011;1986;52.546;13.428;2023-05-29T08:46:00;30.80;;;28.50;;
3943;SDS011;1986;52.546;13.428;2023-05-29T08:48:29;31.10;;;28.73;;
3943;SDS011;1986;52.546;13.428;2023-05-29T08:50:57;29.83;;;27.60;;
3943;SDS011;1986;52.546;13.428;2023-05-29T08:53:26;30.60;;;28.10;;
3943;SDS011;1986;52.546;13.428;2023-05-29T08:55:53;29.10;;;27.00;;
3943;SDS011;1986;52.546;13.428;2023-05-29T08:58:21;29.53;;;27.33;;
3943;SDS011;1986;52.546;13.428;2023-05-29T09:00:49;29.67;;;27.47;;
3943;SDS011;1986;52.546;13.428;2023-05-29T09:03:17;31.40;;;29.07;;
3943;SDS011;1986;52.546;13.428;2023-05-29T09:05:45;30.40;;;28.20;;
3943;SDS011;1986;52.546;13.428;2023-05-29T09:08:12;31.80;;;28.90;;
3943;SDS011;1986;52.546;13.428;2023-05-29T09:10:41;28.87;;;26.73;;
3943;SDS011;1986;52.546;13.428;2023-05-29T09:13:08;29.60;;;27.40;;
3943;SDS011;1986;52.546;13.428;2023-05-29T09:15:36;29.70;;;27.60;;
3943;SDS011;1986;52.546;13.428;2023-05-29T09:18:05;29.40;;;27.20;;
3943;SDS011;1986;52.546;13.428;2023-05-29T09:20:36;28.50;;;26.40;;
3943;SDS011;1986;52.546;13.428;2023-05-29T09:23:04;31.07;;;28.50;;
3943;SDS011;1986;52.546;13.428;2023-05-29T09:25:32;28.40;;;26.30;;
3943;SDS011;1986;52.546;13.428;2023-05-29T09:28:02;30.10;;;27.70;;
3943;SDS011;1986;52.546;13.428;2023-05-29T09:30:31;30.40;;;28.20;;
3943;SDS011;1986;52.546;13.428;2023-05-29T09:33:03;29.77;;;27.57;;
3943;SDS011;1986;52.546;13.428;2023-05-29T09:35:34;28.97;;;26.87;;
3943;SDS011;1986;52.546;13.428;2023-05-29T09:38:02;29.20;;;27.00;;
3943;SDS011;1986;52.546;13.428;2023-05-29T09:40:33;30.40;;;28.00;;
3943;SDS011;1986;52.546;13.428;2023-05-29T09:43:04;29.93;;;27.73;;
3943;SDS011;1986;52.546;13.428;2023-05-29T09:45:38;28.80;;;26.70;;
3943;SDS011;1986;52.546;13.428;2023-05-29T09:48:06;29.10;;;26.90;;
3943;SDS011;1986;52.546;13.428;2023-05-29T09:50:34;28.23;;;26.23;;
3943;SDS011;1986;52.546;13.428;2023-05-29T09:53:01;28.43;;;26.27;;
3943;SDS011;1986;52.546;13.428;2023-05-29T09:55:32;28.43;;;26.33;;
3943;SDS011;1986;52.546;13.428;2023-05-29T09:58:01;28.67;;;26.57;;
3943;SDS011;1986;52.546;13.428;2023-05-29T10:00:29;29.23;;;27.10;;
3943;SDS011;1986;52.546;13.428;2023-05-29T10:02:57;29.60;;;27.40;;
3943;SDS011;1986;52.546;13.428;2023-05-29T10:05:24;29.40;;;27.30;;
3943;SDS011;1986;52.546;13.428;2023-05-29T10:07:52;31.47;;;29.27;;
3943;SDS011;1986;52.546;13.428;2023-05-29T10:10:20;31.73;;;29.43;;
3943;SDS011;1986;52.546;13.428;2023-05-29T10:12:52;30.97;;;28.67;;
3943;SDS011;1986;52.546;13.428;2023-05-29T10:15:22;32.43;;;30.13;;
3943;SDS011;1986;52.546;13.428;2023-05-29T10:17:59;31.77;;;29.30;;
3943;SDS011;1986;52.546;13.428;2023-05-29T10:20:29;29.17;;;27.07;;
3943;SDS011;1986;52.546;13.428;2023-05-29T10:23:00;29.63;;;27.53;;
3943;SDS011;1986;52.546;13.428;2023-05-29T10:25:29;30.13;;;27.93;;
3943;SDS011;1986;52.546;13.428;2023-05-29T10:27:58;29.27;;;27.20;;
3943;SDS011;1986;52.546;13.428;2023-05-29T10:30:28;30.80;;;28.07;;
3943;SDS011;1986;52.546;13.428;2023-05-29T10:33:04;29.27;;;27.10;;
3943;SDS011;1986;52.546;13.428;2023-05-29T10:35:40;31.17;;;27.90;;
3943;SDS011;1986;52.546;13.428;2023-05-29T10:38:12;29.20;;;27.00;;
3943;SDS011;1986;52.546;13.428;2023-05-29T10:40:42;29.97;;;27.77;;
3943;SDS011;1986;52.546;13.428;2023-05-29T10:43:09;29.27;;;27.17;;
3943;SDS011;1986;52.546;13.428;2023-05-29T10:45:57;30.43;;;28.23;;
3943;SDS011;1986;52.546;13.428;2023-05-29T10:48:39;29.80;;;27.40;;
3943;SDS011;1986;52.546;13.428;2023-05-29T10:51:23;28.10;;;26.00;;
3943;SDS011;1986;52.546;13.428;2023-05-29T10:53:52;29.50;;;27.30;;
3943;SDS011;1986;52.546;13.428;2023-05-29T10:56:22;28.20;;;26.10;;
3943;SDS011;1986;52.546;13.428;2023-05-29T10:58:54;29.17;;;26.87;;
3943;SDS011;1986;52.546;13.428;2023-05-29T11:01:22;29.80;;;27.50;;
3943;SDS011;1986;52.546;13.428;2023-05-29T11:03:53;29.43;;;27.30;;
3943;SDS011;1986;52.546;13.428;2023-05-29T11:06:41;29.70;;;27.23;;
3943;SDS011;1986;52.546;13.428;2023-05-29T11:09:12;29.63;;;27.43;;
3943;SDS011;1986;52.546;13.428;2023-05-29T11:12:16;29.80;;;27.60;;
3943;SDS011;1986;52.546;13.428;2023-05-29T11:15:00;32.60;;;30.20;;
3943;SDS011;1986;52.546;13.428;2023-05-29T11:17:32;30.73;;;28.53;;
3943;SDS011;1986;52.546;13.428;2023-05-29T11:20:16;30.57;;;28.13;;
3943;SDS011;1986;52.546;13.428;2023-05-29T11:23:00;32.80;;;29.90;;
3943;SDS011;1986;52.546;13.428;2023-05-29T11:25:29;30.40;;;28.20;;
3943;SDS011;1986;52.546;13.428;2023-05-29T11:28:03;30.17;;;27.97;;
3943;SDS011;1986;52.546;13.428;2023-05-29T11:33:19;30.77;;;28.57;;
3943;SDS011;1986;52.546;13.428;2023-05-29T11:35:57;30.10;;;27.90;;
3943;SDS011;1986;52.546;13.428;2023-05-29T11:38:25;31.30;;;29.00;;
3943;SDS011;1986;52.546;13.428;2023-05-29T11:40:55;30.30;;;28.10;;
3943;SDS011;1986;52.546;13.428;2023-05-29T11:43:24;31.30;;;29.00;;
3943;SDS011;1986;52.546;13.428;2023-05-29T11:45:51;31.00;;;28.70;;
3943;SDS011;1986;52.546;13.428;2023-05-29T11:48:18;30.67;;;28.37;;
3943;SDS011;1986;52.546;13.428;2023-05-29T11:50:45;31.30;;;28.80;;
3943;SDS011;1986;52.546;13.428;2023-05-29T11:53:14;31.37;;;28.97;;
3943;SDS011;1986;52.546;13.428;2023-05-29T11:55:41;30.97;;;28.67;;
3943;SDS011;1986;52.546;13.428;2023-05-29T11:58:08;29.70;;;27.50;;
3943;SDS011;1986;52.546;13.428;2023-05-29T12:00:35;30.10;;;27.90;;
3943;SDS011;1986;52.546;13.428;2023-05-29T12:03:03;30.10;;;27.90;;
3943;SDS011;1986;52.546;13.428;2023-05-29T12:05:31;30.53;;;28.40;;
3943;SDS011;1986;52.546;13.428;2023-05-29T12:07:59;30.10;;;27.90;;
3943;SDS011;1986;52.546;13.428;2023-05-29T12:10:30;30.47;;;28.30;;
3943;SDS011;1986;52.546;13.428;2023-05-29T12:12:58;30.20;;;27.90;;
3943;SDS011;1986;52.546;13.428;2023-05-29T12:15:26;29.80;;;27.60;;
3943;SDS011;1986;52.546;13.428;2023-05-29T12:17:53;30.53;;;28.33;;
3943;SDS011;1986;52.546;13.428;2023-05-29T12:20:22;29.40;;;27.30;;
3943;SDS011;1986;52.546;13.428;2023-05-29T12:22:51;31.07;;;28.87;;
3943;SDS011;1986;52.546;13.428;2023-05-29T12:25:19;30.63;;;28.43;;
3943;SDS011;1986;52.546;13.428;2023-05-29T12:27:48;29.60;;;27.50;;
3943;SDS011;1986;52.546;13.428;2023-05-29T12:30:21;30.87;;;28.77;;
3943;SDS011;1986;52.546;13.428;2023-05-29T12:32:52;31.20;;;29.00;;
3943;SDS011;1986;52.546;13.428;2023-05-29T12:35:20;29.10;;;27.00;;
3943;SDS011;1986;52.546;13.428;2023-05-29T12:37:49;30.60;;;28.50;;
3943;SDS011;1986;52.546;13.428;2023-05-29T12:40:20;32.47;;;30.27;;
3943;SDS011;1986;52.546;13.428;2023-05-29T12:42:53;31.53;;;29.33;;
3943;SDS011;1986;52.546;13.428;2023-05-29T12:45:21;31.20;;;29.10;;
3943;SDS011;1986;52.546;13.428;2023-05-29T12:47:51;31.17;;;29.07;;
3943;SDS011;1986;52.546;13.428;2023-05-29T12:50:23;30.73;;;28.63;;
3943;SDS011;1986;52.546;13.428;2023-05-29T12:52:53;31.80;;;29.50;;
3943;SDS011;1986;52.546;13.428;2023-05-29T12:55:21;32.90;;;30.60;;
3943;SDS011;1986;52.546;13.428;2023-05-29T12:57:50;31.37;;;29.17;;
3943;SDS011;1986;52.546;13.428;2023-05-29T13:00:18;30.30;;;28.10;;
3943;SDS011;1986;52.546;13.428;2023-05-29T13:02:46;30.57;;;28.47;;
3943;SDS011;1986;52.546;13.428;2023-05-29T13:05:13;33.13;;;30.13;;
3943;SDS011;1986;52.546;13.428;2023-05-29T13:07:43;31.70;;;29.40;;
3943;SDS011;1986;52.546;13.428;2023-05-29T13:10:12;29.77;;;27.47;;
3943;SDS011;1986;52.546;13.428;2023-05-29T13:12:39;31.43;;;29.23;;
3943;SDS011;1986;52.546;13.428;2023-05-29T13:15:09;31.03;;;28.83;;
3943;SDS011;1986;52.546;13.428;2023-05-29T13:17:36;30.90;;;28.70;;
3943;SDS011;1986;52.546;13.428;2023-05-29T13:20:06;31.73;;;29.43;;
3943;SDS011;1986;52.546;13.428;2023-05-29T13:22:35;31.20;;;29.00;;
3943;SDS011;1986;52.546;13.428;2023-05-29T13:25:02;30.20;;;28.00;;
3943;SDS011;1986;52.546;13.428;2023-05-29T13:27:31;30.20;;;28.10;;
3943;SDS011;1986;52.546;13.428;2023-05-29T13:29:59;32.77;;;30.37;;
3943;SDS011;1986;52.546;13.428;2023-05-29T13:32:27;32.37;;;30.07;;
3943;SDS011;1986;52.546;13.428;2023-05-29T13:34:54;32.07;;;29.77;;
3943;SDS011;1986;52.546;13.428;2023-05-29T13:37:21;37.17;;;34.67;;
3943;SDS011;1986;52.546;13.428;2023-05-29T13:39:49;30.00;;;27.90;;
3943;SDS011;1986;52.546;13.428;2023-05-29T13:42:16;30.53;;;28.33;;
3943;SDS011;1986;52.546;13.428;2023-05-29T13:44:43;31.10;;;28.90;;
3943;SDS011;1986;52.546;13.428;2023-05-29T13:47:10;31.03;;;28.83;;
3943;SDS011;1986;52.546;13.428;2023-05-29T13:49:41;33.07;;;30.03;;
3943;SDS011;1986;52.546;13.428;2023-05-29T13:52:08;29.90;;;27.70;;
3943;SDS011;1986;52.546;13.428;2023-05-29T13:54:35;29.50;;;27.40;;
3943;SDS011;1986;52.546;13.428;2023-05-29T13:57:02;29.57;;;27.47;;
3943;SDS011;1986;52.546;13.428;2023-05-29T13:59:30;29.70;;;27.50;;
3943;SDS011;1986;52.546;13.428;2023-05-29T14:01:57;30.80;;;28.60;;
3943;SDS011;1986;52.546;13.428;2023-05-29T14:04:25;29.40;;;27.20;;
3943;SDS011;1986;52.546;13.428;2023-05-29T14:06:54;31.87;;;29.40;;
3943;SDS011;1986;52.546;13.428;2023-05-29T14:09:22;30.47;;;28.27;;
3943;SDS011;1986;52.546;13.428;2023-05-29T14:11:52;31.60;;;29.30;;
3943;SDS011;1986;52.546;13.428;2023-05-29T14:14:20;33.37;;;30.97;;
3943;SDS011;1986;52.546;13.428;2023-05-29T14:16:47;32.30;;;30.00;;
3943;SDS011;1986;52.546;13.428;2023-05-29T14:19:15;30.87;;;28.67;;
3943;SDS011;1986;52.546;13.428;2023-05-29T14:21:42;32.20;;;29.90;;
3943;SDS011;1986;52.546;13.428;2023-05-29T14:24:11;30.40;;;28.20;;
3943;SDS011;1986;52.546;13.428;2023-05-29T14:26:40;30.30;;;28.10;;
3943;SDS011;1986;52.546;13.428;2023-05-29T14:29:10;30.97;;;28.70;;
3943;SDS011;1986;52.546;13.428;2023-05-29T14:31:38;31.07;;;28.77;;
3943;SDS011;1986;52.546;13.428;2023-05-29T14:34:05;30.30;;;28.10;;
3943;SDS011;1986;52.546;13.428;2023-05-29T14:36:32;29.73;;;27.63;;
3943;SDS011;1986;52.546;13.428;2023-05-29T14:38:59;31.60;;;29.20;;
3943;SDS011;1986;52.546;13.428;2023-05-29T14:41:27;31.10;;;28.70;;
3943;SDS011;1986;52.546;13.428;2023-05-29T14:43:54;29.37;;;27.17;;
3943;SDS011;1986;52.546;13.428;2023-05-29T14:46:23;32.03;;;29.63;;